This is the latest recevied weather packets stored in our database for station/object KF0JHJ. If no packets are shown the sender has not sent any weather packets the latest 1 day(s).
| Time | Temp. | Humidity | Pressure | Rain* | Wind** | Luminosity | Snow |
|---|---|---|---|---|---|---|---|
| 1777995241 | 8.33° C | 47% | 1009.1 hPa | - | 1.34 m/s, 308° | 363 W/m² | - |
| 1777994938 | 7.78° C | 46% | 1009 hPa | - | 0.89 m/s, 349° | 73 W/m² | - |
| 1777994636 | 8.89° C | 51% | 1009.1 hPa | - | 3.13 m/s, 160° | 210 W/m² | - |
| 1777994335 | 8.33° C | 51% | 1009 hPa | - | 0.89 m/s, 270° | 431 W/m² | - |
| 1777994032 | 8.33° C | 50% | 1008.9 hPa | - | 0.89 m/s, 24° | 158 W/m² | - |
| 1777993723 | 7.78° C | 49% | 1008.9 hPa | - | 0.45 m/s, 340° | 93 W/m² | - |
| 1777993420 | 8.89° C | 50% | 1009 hPa | - | 0 m/s | 86 W/m² | - |
| 1777993115 | 7.78° C | 49% | 1008.9 hPa | - | 1.79 m/s, 19° | 127 W/m² | - |
| 1777992813 | 7.78° C | 49% | 1008.9 hPa | - | 1.34 m/s, 0° | 125 W/m² | - |
| 1777992510 | 7.78° C | 51% | 1009 hPa | - | 0 m/s | 138 W/m² | - |
| 1777992209 | 7.78° C | 51% | 1008.9 hPa | - | 0 m/s | 73 W/m² | - |
| 1777991906 | 7.22° C | 50% | 1008.9 hPa | - | 0.89 m/s, 346° | 62 W/m² | - |
| 1777991603 | 7.22° C | 49% | 1008.9 hPa | - | 0 m/s | 98 W/m² | - |
| 1777991300 | 7.78° C | 47% | 1008.8 hPa | - | 1.34 m/s, 51° | 91 W/m² | - |
| 1777990997 | 7.22° C | 51% | 1008.4 hPa | - | 0 m/s | 158 W/m² | - |
| 1777990694 | 7.22° C | 49% | 1008.8 hPa | - | 0.45 m/s, 337° | 252 W/m² | - |
| 1777990392 | 7.22° C | 49% | 1008.7 hPa | - | 0 m/s | 242 W/m² | - |
| 1777990088 | 7.22° C | 52% | 1008.8 hPa | - | 0 m/s | 148 W/m² | - |
| 1777989784 | 6.67° C | 50% | 1008.8 hPa | - | 0 m/s | 297 W/m² | - |
| 1777989481 | 6.67° C | 51% | 1008.7 hPa | - | 0.89 m/s, 41° | 272 W/m² | - |
| 1777989177 | 6.11° C | 50% | 1008.6 hPa | - | 0.89 m/s, 3° | 152 W/m² | - |
| 1777988873 | 6.67° C | 51% | 1008.7 hPa | - | 0 m/s | 166 W/m² | - |
| 1777988571 | 6.11° C | 51% | 1008.5 hPa | - | 0 m/s | 198 W/m² | - |
| 1777988268 | 6.11° C | 52% | 1008.5 hPa | - | 0 m/s | 135 W/m² | - |
| 1777987964 | 6.11° C | 53% | 1008.3 hPa | - | 0.89 m/s, 355° | 212 W/m² | - |
* Rain since midnight (hover to see other rain measurements)
** Current wind speed in m/s (hover to see current wind gust speed)